sensor_id;sensor_type;location;lat;lon;timestamp;P1;durP1;ratioP1;P2;durP2;ratioP2
29430;SDS011;16404;49.902;10.074;2023-02-28T00:00:03;8.82;;;5.30;;
29430;SDS011;16404;49.902;10.074;2023-02-28T00:02:55;7.90;;;4.90;;
29430;SDS011;16404;49.902;10.074;2023-02-28T00:05:40;7.10;;;5.18;;
29430;SDS011;16404;49.902;10.074;2023-02-28T00:08:25;9.75;;;5.45;;
29430;SDS011;16404;49.902;10.074;2023-02-28T00:11:11;8.05;;;4.97;;
29430;SDS011;16404;49.902;10.074;2023-02-28T00:13:57;7.82;;;5.15;;
29430;SDS011;16404;49.902;10.074;2023-02-28T00:16:42;7.57;;;5.00;;
29430;SDS011;16404;49.902;10.074;2023-02-28T00:19:27;9.40;;;5.20;;
29430;SDS011;16404;49.902;10.074;2023-02-28T00:22:11;9.73;;;5.00;;
29430;SDS011;16404;49.902;10.074;2023-02-28T00:24:56;7.75;;;5.32;;
29430;SDS011;16404;49.902;10.074;2023-02-28T00:27:41;8.75;;;5.35;;
29430;SDS011;16404;49.902;10.074;2023-02-28T00:30:26;7.97;;;5.47;;
29430;SDS011;16404;49.902;10.074;2023-02-28T00:33:10;9.18;;;5.47;;
29430;SDS011;16404;49.902;10.074;2023-02-28T00:36:06;8.15;;;5.13;;
29430;SDS011;16404;49.902;10.074;2023-02-28T00:38:55;9.18;;;5.32;;
29430;SDS011;16404;49.902;10.074;2023-02-28T00:41:40;6.38;;;5.13;;
29430;SDS011;16404;49.902;10.074;2023-02-28T00:44:25;9.10;;;5.30;;
29430;SDS011;16404;49.902;10.074;2023-02-28T00:47:10;8.80;;;6.18;;
29430;SDS011;16404;49.902;10.074;2023-02-28T00:49:54;8.88;;;5.85;;
29430;SDS011;16404;49.902;10.074;2023-02-28T00:52:39;7.38;;;5.47;;
29430;SDS011;16404;49.902;10.074;2023-02-28T00:55:23;10.15;;;5.60;;
29430;SDS011;16404;49.902;10.074;2023-02-28T00:58:08;9.23;;;5.65;;
29430;SDS011;16404;49.902;10.074;2023-02-28T01:00:53;10.82;;;5.07;;
29430;SDS011;16404;49.902;10.074;2023-02-28T01:03:38;8.43;;;5.25;;
29430;SDS011;16404;49.902;10.074;2023-02-28T01:06:22;12.10;;;5.80;;
29430;SDS011;16404;49.902;10.074;2023-02-28T01:09:07;9.70;;;5.95;;
29430;SDS011;16404;49.902;10.074;2023-02-28T01:11:52;8.85;;;5.93;;
29430;SDS011;16404;49.902;10.074;2023-02-28T01:14:37;11.68;;;6.03;;
29430;SDS011;16404;49.902;10.074;2023-02-28T01:20:06;9.68;;;5.53;;
29430;SDS011;16404;49.902;10.074;2023-02-28T01:22:51;9.10;;;5.35;;
29430;SDS011;16404;49.902;10.074;2023-02-28T01:25:36;9.00;;;6.07;;
29430;SDS011;16404;49.902;10.074;2023-02-28T01:28:22;7.97;;;5.10;;
29430;SDS011;16404;49.902;10.074;2023-02-28T01:31:08;7.88;;;6.25;;
29430;SDS011;16404;49.902;10.074;2023-02-28T01:33:55;10.25;;;5.93;;
29430;SDS011;16404;49.902;10.074;2023-02-28T01:36:39;9.15;;;5.88;;
29430;SDS011;16404;49.902;10.074;2023-02-28T01:39:24;8.93;;;5.78;;
29430;SDS011;16404;49.902;10.074;2023-02-28T01:42:10;7.95;;;5.63;;
29430;SDS011;16404;49.902;10.074;2023-02-28T01:44:57;13.30;;;6.10;;
29430;SDS011;16404;49.902;10.074;2023-02-28T01:47:48;7.60;;;5.60;;
29430;SDS011;16404;49.902;10.074;2023-02-28T01:50:37;10.20;;;5.90;;
29430;SDS011;16404;49.902;10.074;2023-02-28T01:53:26;9.10;;;5.78;;
29430;SDS011;16404;49.902;10.074;2023-02-28T01:56:17;8.27;;;6.13;;
29430;SDS011;16404;49.902;10.074;2023-02-28T01:59:07;10.75;;;5.85;;
29430;SDS011;16404;49.902;10.074;2023-02-28T02:01:51;11.20;;;5.88;;
29430;SDS011;16404;49.902;10.074;2023-02-28T02:04:38;10.15;;;5.97;;
29430;SDS011;16404;49.902;10.074;2023-02-28T02:07:29;10.45;;;6.20;;
29430;SDS011;16404;49.902;10.074;2023-02-28T02:10:21;12.98;;;6.88;;
29430;SDS011;16404;49.902;10.074;2023-02-28T02:25:19;7.47;;;5.70;;
29430;SDS011;16404;49.902;10.074;2023-02-28T02:34:34;9.65;;;6.15;;
29430;SDS011;16404;49.902;10.074;2023-02-28T02:40:29;12.65;;;6.88;;
29430;SDS011;16404;49.902;10.074;2023-02-28T02:43:22;11.00;;;6.00;;
29430;SDS011;16404;49.902;10.074;2023-02-28T02:46:46;8.55;;;5.88;;
29430;SDS011;16404;49.902;10.074;2023-02-28T02:49:32;10.57;;;6.60;;
29430;SDS011;16404;49.902;10.074;2023-02-28T02:52:20;11.45;;;6.93;;
29430;SDS011;16404;49.902;10.074;2023-02-28T02:55:09;10.15;;;6.30;;
29430;SDS011;16404;49.902;10.074;2023-02-28T02:58:01;14.07;;;7.00;;
29430;SDS011;16404;49.902;10.074;2023-02-28T03:00:50;10.43;;;6.38;;
29430;SDS011;16404;49.902;10.074;2023-02-28T03:03:37;10.60;;;6.28;;
29430;SDS011;16404;49.902;10.074;2023-02-28T03:06:22;11.82;;;6.53;;
29430;SDS011;16404;49.902;10.074;2023-02-28T03:09:06;8.68;;;6.35;;
29430;SDS011;16404;49.902;10.074;2023-02-28T03:11:52;11.35;;;6.80;;
29430;SDS011;16404;49.902;10.074;2023-02-28T03:18:04;15.18;;;6.75;;
29430;SDS011;16404;49.902;10.074;2023-02-28T03:24:11;13.02;;;6.70;;
29430;SDS011;16404;49.902;10.074;2023-02-28T03:30:59;12.68;;;6.40;;
29430;SDS011;16404;49.902;10.074;2023-02-28T03:33:25;10.45;;;7.05;;
29430;SDS011;16404;49.902;10.074;2023-02-28T03:36:17;10.13;;;6.93;;
29430;SDS011;16404;49.902;10.074;2023-02-28T03:39:05;10.90;;;6.55;;
29430;SDS011;16404;49.902;10.074;2023-02-28T03:42:14;10.80;;;7.15;;
29430;SDS011;16404;49.902;10.074;2023-02-28T03:45:08;12.07;;;7.20;;
29430;SDS011;16404;49.902;10.074;2023-02-28T03:47:58;13.63;;;6.55;;
29430;SDS011;16404;49.902;10.074;2023-02-28T03:50:57;10.85;;;7.00;;
29430;SDS011;16404;49.902;10.074;2023-02-28T03:53:48;10.55;;;6.63;;
29430;SDS011;16404;49.902;10.074;2023-02-28T03:56:59;11.48;;;6.95;;
29430;SDS011;16404;49.902;10.074;2023-02-28T03:59:59;9.07;;;6.20;;
29430;SDS011;16404;49.902;10.074;2023-02-28T04:03:00;10.93;;;6.38;;
29430;SDS011;16404;49.902;10.074;2023-02-28T04:05:53;9.45;;;6.47;;
29430;SDS011;16404;49.902;10.074;2023-02-28T04:08:38;11.30;;;6.28;;
29430;SDS011;16404;49.902;10.074;2023-02-28T04:11:32;11.10;;;6.78;;
29430;SDS011;16404;49.902;10.074;2023-02-28T04:14:20;14.52;;;6.80;;
29430;SDS011;16404;49.902;10.074;2023-02-28T04:19:49;12.15;;;6.53;;
29430;SDS011;16404;49.902;10.074;2023-02-28T04:22:34;10.65;;;6.60;;
29430;SDS011;16404;49.902;10.074;2023-02-28T04:28:03;9.15;;;5.97;;
29430;SDS011;16404;49.902;10.074;2023-02-28T04:30:53;9.30;;;5.97;;
29430;SDS011;16404;49.902;10.074;2023-02-28T04:33:42;10.17;;;6.27;;
29430;SDS011;16404;49.902;10.074;2023-02-28T04:36:27;9.75;;;6.32;;
29430;SDS011;16404;49.902;10.074;2023-02-28T04:39:12;9.13;;;5.55;;
29430;SDS011;16404;49.902;10.074;2023-02-28T04:41:56;8.88;;;6.10;;
29430;SDS011;16404;49.902;10.074;2023-02-28T04:44:41;10.25;;;6.57;;
29430;SDS011;16404;49.902;10.074;2023-02-28T04:47:25;11.13;;;7.22;;
29430;SDS011;16404;49.902;10.074;2023-02-28T04:50:10;24.83;;;11.32;;
29430;SDS011;16404;49.902;10.074;2023-02-28T04:52:54;19.20;;;8.82;;
29430;SDS011;16404;49.902;10.074;2023-02-28T04:55:40;18.25;;;8.65;;
29430;SDS011;16404;49.902;10.074;2023-02-28T04:58:24;12.07;;;7.50;;
29430;SDS011;16404;49.902;10.074;2023-02-28T05:04:13;12.35;;;7.47;;
29430;SDS011;16404;49.902;10.074;2023-02-28T05:06:58;18.25;;;9.90;;
29430;SDS011;16404;49.902;10.074;2023-02-28T05:09:43;19.05;;;10.88;;
29430;SDS011;16404;49.902;10.074;2023-02-28T05:12:27;18.75;;;11.35;;
29430;SDS011;16404;49.902;10.074;2023-02-28T05:15:12;20.60;;;11.32;;
29430;SDS011;16404;49.902;10.074;2023-02-28T05:17:58;18.05;;;9.85;;
29430;SDS011;16404;49.902;10.074;2023-02-28T05:20:43;13.27;;;9.27;;
29430;SDS011;16404;49.902;10.074;2023-02-28T05:26:12;12.37;;;7.67;;
29430;SDS011;16404;49.902;10.074;2023-02-28T05:28:57;12.48;;;6.93;;
29430;SDS011;16404;49.902;10.074;2023-02-28T05:31:41;11.07;;;7.65;;
29430;SDS011;16404;49.902;10.074;2023-02-28T05:34:26;10.35;;;7.05;;
29430;SDS011;16404;49.902;10.074;2023-02-28T05:37:11;16.33;;;9.25;;
29430;SDS011;16404;49.902;10.074;2023-02-28T05:39:56;10.93;;;6.57;;
29430;SDS011;16404;49.902;10.074;2023-02-28T05:42:41;12.68;;;6.82;;
29430;SDS011;16404;49.902;10.074;2023-02-28T05:45:26;12.25;;;8.75;;
29430;SDS011;16404;49.902;10.074;2023-02-28T05:48:11;8.30;;;6.30;;
29430;SDS011;16404;49.902;10.074;2023-02-28T05:50:56;9.05;;;6.22;;
29430;SDS011;16404;49.902;10.074;2023-02-28T05:53:41;12.63;;;7.82;;
29430;SDS011;16404;49.902;10.074;2023-02-28T05:56:26;9.45;;;5.75;;
29430;SDS011;16404;49.902;10.074;2023-02-28T05:59:13;8.90;;;5.82;;
29430;SDS011;16404;49.902;10.074;2023-02-28T06:01:58;10.80;;;7.03;;
29430;SDS011;16404;49.902;10.074;2023-02-28T06:04:43;14.40;;;7.65;;
29430;SDS011;16404;49.902;10.074;2023-02-28T06:07:28;22.13;;;11.02;;
29430;SDS011;16404;49.902;10.074;2023-02-28T06:10:13;14.82;;;8.68;;
29430;SDS011;16404;49.902;10.074;2023-02-28T06:12:59;10.57;;;6.43;;
29430;SDS011;16404;49.902;10.074;2023-02-28T06:15:46;10.70;;;6.05;;
29430;SDS011;16404;49.902;10.074;2023-02-28T06:18:30;9.65;;;6.05;;
29430;SDS011;16404;49.902;10.074;2023-02-28T06:21:15;8.88;;;5.93;;
29430;SDS011;16404;49.902;10.074;2023-02-28T06:24:00;12.13;;;6.10;;
29430;SDS011;16404;49.902;10.074;2023-02-28T06:26:45;8.48;;;5.43;;
29430;SDS011;16404;49.902;10.074;2023-02-28T06:29:29;12.02;;;6.00;;
29430;SDS011;16404;49.902;10.074;2023-02-28T06:32:14;9.70;;;6.03;;
29430;SDS011;16404;49.902;10.074;2023-02-28T06:34:59;9.00;;;5.70;;
29430;SDS011;16404;49.902;10.074;2023-02-28T06:37:43;9.73;;;5.60;;
29430;SDS011;16404;49.902;10.074;2023-02-28T06:40:28;8.25;;;5.78;;
29430;SDS011;16404;49.902;10.074;2023-02-28T06:43:15;8.75;;;5.95;;
29430;SDS011;16404;49.902;10.074;2023-02-28T06:46:00;8.68;;;5.93;;
29430;SDS011;16404;49.902;10.074;2023-02-28T06:48:46;11.10;;;6.13;;
29430;SDS011;16404;49.902;10.074;2023-02-28T06:51:30;11.65;;;6.43;;
29430;SDS011;16404;49.902;10.074;2023-02-28T06:54:14;11.35;;;6.00;;
29430;SDS011;16404;49.902;10.074;2023-02-28T06:56:59;11.57;;;7.05;;
29430;SDS011;16404;49.902;10.074;2023-02-28T06:59:44;12.93;;;6.15;;
29430;SDS011;16404;49.902;10.074;2023-02-28T07:02:28;10.18;;;5.90;;
29430;SDS011;16404;49.902;10.074;2023-02-28T07:05:13;9.70;;;5.65;;
29430;SDS011;16404;49.902;10.074;2023-02-28T07:07:58;9.52;;;5.68;;
29430;SDS011;16404;49.902;10.074;2023-02-28T07:10:42;8.25;;;5.10;;
29430;SDS011;16404;49.902;10.074;2023-02-28T07:13:27;11.10;;;6.72;;
29430;SDS011;16404;49.902;10.074;2023-02-28T07:16:12;8.63;;;5.85;;
29430;SDS011;16404;49.902;10.074;2023-02-28T07:18:57;11.25;;;6.30;;
29430;SDS011;16404;49.902;10.074;2023-02-28T07:21:42;10.82;;;5.60;;
29430;SDS011;16404;49.902;10.074;2023-02-28T07:24:26;11.15;;;6.45;;
29430;SDS011;16404;49.902;10.074;2023-02-28T07:27:12;11.55;;;5.82;;
29430;SDS011;16404;49.902;10.074;2023-02-28T07:30:07;10.82;;;6.50;;
29430;SDS011;16404;49.902;10.074;2023-02-28T07:32:52;10.63;;;5.85;;
29430;SDS011;16404;49.902;10.074;2023-02-28T07:35:39;12.80;;;6.63;;
29430;SDS011;16404;49.902;10.074;2023-02-28T07:38:24;13.82;;;7.03;;
29430;SDS011;16404;49.902;10.074;2023-02-28T07:41:09;12.32;;;6.63;;
29430;SDS011;16404;49.902;10.074;2023-02-28T07:43:54;15.23;;;6.85;;
29430;SDS011;16404;49.902;10.074;2023-02-28T07:46:41;11.15;;;6.72;;
29430;SDS011;16404;49.902;10.074;2023-02-28T07:49:25;14.18;;;7.60;;
29430;SDS011;16404;49.902;10.074;2023-02-28T07:52:10;15.40;;;7.50;;
29430;SDS011;16404;49.902;10.074;2023-02-28T07:54:54;11.00;;;7.03;;
29430;SDS011;16404;49.902;10.074;2023-02-28T07:57:39;12.93;;;7.57;;
29430;SDS011;16404;49.902;10.074;2023-02-28T08:00:24;15.75;;;7.88;;
29430;SDS011;16404;49.902;10.074;2023-02-28T08:03:11;13.48;;;7.15;;
29430;SDS011;16404;49.902;10.074;2023-02-28T08:05:57;15.90;;;7.47;;
29430;SDS011;16404;49.902;10.074;2023-02-28T08:08:41;14.18;;;7.72;;
29430;SDS011;16404;49.902;10.074;2023-02-28T08:11:26;10.60;;;7.25;;
29430;SDS011;16404;49.902;10.074;2023-02-28T08:14:10;12.75;;;8.10;;
29430;SDS011;16404;49.902;10.074;2023-02-28T08:16:55;11.20;;;7.60;;
29430;SDS011;16404;49.902;10.074;2023-02-28T08:19:39;16.05;;;7.50;;
29430;SDS011;16404;49.902;10.074;2023-02-28T08:22:24;11.50;;;7.32;;
29430;SDS011;16404;49.902;10.074;2023-02-28T08:25:09;14.70;;;8.32;;
29430;SDS011;16404;49.902;10.074;2023-02-28T08:27:53;12.38;;;7.45;;
29430;SDS011;16404;49.902;10.074;2023-02-28T08:30:38;14.00;;;8.95;;
29430;SDS011;16404;49.902;10.074;2023-02-28T08:33:24;13.55;;;8.07;;
29430;SDS011;16404;49.902;10.074;2023-02-28T08:36:10;14.15;;;7.78;;
29430;SDS011;16404;49.902;10.074;2023-02-28T08:41:46;13.38;;;8.23;;
29430;SDS011;16404;49.902;10.074;2023-02-28T08:44:59;13.05;;;8.13;;
29430;SDS011;16404;49.902;10.074;2023-02-28T08:48:26;11.00;;;8.10;;
29430;SDS011;16404;49.902;10.074;2023-02-28T08:52:32;13.73;;;7.75;;
29430;SDS011;16404;49.902;10.074;2023-02-28T08:55:17;14.55;;;8.50;;
29430;SDS011;16404;49.902;10.074;2023-02-28T08:58:01;12.75;;;7.72;;
29430;SDS011;16404;49.902;10.074;2023-02-28T09:00:45;15.43;;;8.10;;
29430;SDS011;16404;49.902;10.074;2023-02-28T09:03:30;13.63;;;8.15;;
29430;SDS011;16404;49.902;10.074;2023-02-28T09:06:15;11.45;;;7.80;;
29430;SDS011;16404;49.902;10.074;2023-02-28T09:09:02;14.38;;;7.65;;
29430;SDS011;16404;49.902;10.074;2023-02-28T09:11:50;13.40;;;7.47;;
29430;SDS011;16404;49.902;10.074;2023-02-28T09:14:34;14.00;;;7.57;;
29430;SDS011;16404;49.902;10.074;2023-02-28T09:17:19;13.70;;;7.97;;
29430;SDS011;16404;49.902;10.074;2023-02-28T09:22:48;11.55;;;6.38;;
29430;SDS011;16404;49.902;10.074;2023-02-28T09:25:33;12.63;;;6.97;;
29430;SDS011;16404;49.902;10.074;2023-02-28T09:31:03;13.40;;;7.30;;
29430;SDS011;16404;49.902;10.074;2023-02-28T09:33:48;15.82;;;7.15;;
29430;SDS011;16404;49.902;10.074;2023-02-28T09:36:34;13.13;;;6.95;;
29430;SDS011;16404;49.902;10.074;2023-02-28T09:39:21;13.77;;;7.15;;
29430;SDS011;16404;49.902;10.074;2023-02-28T09:42:11;12.80;;;7.75;;
29430;SDS011;16404;49.902;10.074;2023-02-28T09:45:07;12.05;;;6.95;;
29430;SDS011;16404;49.902;10.074;2023-02-28T09:48:03;15.65;;;7.38;;
29430;SDS011;16404;49.902;10.074;2023-02-28T09:51:02;9.70;;;6.88;;
29430;SDS011;16404;49.902;10.074;2023-02-28T09:53:49;12.88;;;8.20;;
29430;SDS011;16404;49.902;10.074;2023-02-28T09:56:39;12.15;;;7.15;;
29430;SDS011;16404;49.902;10.074;2023-02-28T10:05:49;13.88;;;7.80;;
29430;SDS011;16404;49.902;10.074;2023-02-28T10:11:53;12.40;;;7.72;;
29430;SDS011;16404;49.902;10.074;2023-02-28T10:14:42;12.20;;;7.75;;
29430;SDS011;16404;49.902;10.074;2023-02-28T10:17:34;10.88;;;7.63;;
29430;SDS011;16404;49.902;10.074;2023-02-28T10:20:23;12.63;;;7.88;;
29430;SDS011;16404;49.902;10.074;2023-02-28T10:23:48;11.57;;;7.15;;
29430;SDS011;16404;49.902;10.074;2023-02-28T10:26:28;14.07;;;7.10;;
29430;SDS011;16404;49.902;10.074;2023-02-28T10:29:15;13.43;;;6.95;;
29430;SDS011;16404;49.902;10.074;2023-02-28T10:32:00;16.20;;;7.20;;
29430;SDS011;16404;49.902;10.074;2023-02-28T10:34:52;15.57;;;6.72;;
29430;SDS011;16404;49.902;10.074;2023-02-28T10:40:31;12.45;;;7.50;;
29430;SDS011;16404;49.902;10.074;2023-02-28T10:43:20;12.45;;;7.22;;
29430;SDS011;16404;49.902;10.074;2023-02-28T10:49:13;13.10;;;7.45;;
29430;SDS011;16404;49.902;10.074;2023-02-28T10:52:03;12.13;;;7.97;;
29430;SDS011;16404;49.902;10.074;2023-02-28T10:54:48;12.98;;;7.93;;
29430;SDS011;16404;49.902;10.074;2023-02-28T10:57:32;11.45;;;7.63;;
29430;SDS011;16404;49.902;10.074;2023-02-28T11:00:21;12.35;;;7.93;;
29430;SDS011;16404;49.902;10.074;2023-02-28T11:03:22;14.90;;;8.02;;
29430;SDS011;16404;49.902;10.074;2023-02-28T11:06:19;13.90;;;8.23;;
29430;SDS011;16404;49.902;10.074;2023-02-28T11:09:18;15.13;;;8.55;;
29430;SDS011;16404;49.902;10.074;2023-02-28T11:12:44;13.30;;;8.02;;
29430;SDS011;16404;49.902;10.074;2023-02-28T11:15:23;12.90;;;7.88;;
29430;SDS011;16404;49.902;10.074;2023-02-28T11:21:15;11.77;;;7.85;;
29430;SDS011;16404;49.902;10.074;2023-02-28T11:24:19;13.50;;;7.78;;
29430;SDS011;16404;49.902;10.074;2023-02-28T11:36:14;11.98;;;7.38;;
29430;SDS011;16404;49.902;10.074;2023-02-28T11:39:09;15.15;;;7.85;;
29430;SDS011;16404;49.902;10.074;2023-02-28T11:45:12;14.13;;;7.93;;
29430;SDS011;16404;49.902;10.074;2023-02-28T11:48:04;11.07;;;7.47;;
29430;SDS011;16404;49.902;10.074;2023-02-28T11:51:47;15.15;;;7.50;;
29430;SDS011;16404;49.902;10.074;2023-02-28T11:57:16;17.33;;;7.88;;
29430;SDS011;16404;49.902;10.074;2023-02-28T12:03:22;10.70;;;6.65;;
29430;SDS011;16404;49.902;10.074;2023-02-28T12:27:45;10.95;;;7.30;;
29430;SDS011;16404;49.902;10.074;2023-02-28T12:30:32;13.30;;;7.82;;
29430;SDS011;16404;49.902;10.074;2023-02-28T12:33:20;10.20;;;6.80;;
29430;SDS011;16404;49.902;10.074;2023-02-28T12:36:13;15.05;;;8.75;;
29430;SDS011;16404;49.902;10.074;2023-02-28T12:39:04;11.88;;;7.65;;
29430;SDS011;16404;49.902;10.074;2023-02-28T12:41:53;13.02;;;7.50;;
29430;SDS011;16404;49.902;10.074;2023-02-28T12:44:52;14.35;;;7.70;;
29430;SDS011;16404;49.902;10.074;2023-02-28T12:47:47;12.57;;;7.72;;
29430;SDS011;16404;49.902;10.074;2023-02-28T12:50:36;13.70;;;8.07;;
29430;SDS011;16404;49.902;10.074;2023-02-28T12:56:31;13.48;;;7.70;;
29430;SDS011;16404;49.902;10.074;2023-02-28T12:59:25;17.05;;;8.27;;
29430;SDS011;16404;49.902;10.074;2023-02-28T13:11:44;11.82;;;7.63;;
29430;SDS011;16404;49.902;10.074;2023-02-28T13:17:21;16.80;;;8.35;;
29430;SDS011;16404;49.902;10.074;2023-02-28T13:23:36;15.63;;;8.38;;
29430;SDS011;16404;49.902;10.074;2023-02-28T13:29:27;13.95;;;9.13;;
29430;SDS011;16404;49.902;10.074;2023-02-28T13:32:32;15.85;;;8.30;;
29430;SDS011;16404;49.902;10.074;2023-02-28T13:35:34;15.70;;;8.63;;
29430;SDS011;16404;49.902;10.074;2023-02-28T13:38:39;12.73;;;7.65;;
29430;SDS011;16404;49.902;10.074;2023-02-28T13:44:16;17.00;;;8.18;;
29430;SDS011;16404;49.902;10.074;2023-02-28T14:05:15;13.27;;;8.45;;
29430;SDS011;16404;49.902;10.074;2023-02-28T14:08:10;24.02;;;9.07;;
29430;SDS011;16404;49.902;10.074;2023-02-28T14:11:08;15.27;;;8.90;;
29430;SDS011;16404;49.902;10.074;2023-02-28T14:14:08;13.57;;;8.57;;
29430;SDS011;16404;49.902;10.074;2023-02-28T14:17:14;14.68;;;8.88;;
29430;SDS011;16404;49.902;10.074;2023-02-28T14:20:00;13.85;;;8.73;;
29430;SDS011;16404;49.902;10.074;2023-02-28T14:26:03;13.05;;;8.50;;
29430;SDS011;16404;49.902;10.074;2023-02-28T14:29:18;14.88;;;8.68;;
29430;SDS011;16404;49.902;10.074;2023-02-28T14:35:27;12.82;;;8.27;;
29430;SDS011;16404;49.902;10.074;2023-02-28T14:38:28;16.17;;;9.05;;
29430;SDS011;16404;49.902;10.074;2023-02-28T14:41:29;15.38;;;8.18;;
29430;SDS011;16404;49.902;10.074;2023-02-28T14:47:04;16.80;;;9.00;;
29430;SDS011;16404;49.902;10.074;2023-02-28T14:49:57;11.85;;;7.63;;
29430;SDS011;16404;49.902;10.074;2023-02-28T14:52:43;16.17;;;8.70;;
29430;SDS011;16404;49.902;10.074;2023-02-28T14:55:30;17.83;;;8.57;;
29430;SDS011;16404;49.902;10.074;2023-02-28T15:01:10;13.45;;;8.35;;
29430;SDS011;16404;49.902;10.074;2023-02-28T15:13:11;11.80;;;7.28;;
29430;SDS011;16404;49.902;10.074;2023-02-28T15:15:59;18.90;;;8.45;;
29430;SDS011;16404;49.902;10.074;2023-02-28T15:18:50;14.07;;;8.27;;
29430;SDS011;16404;49.902;10.074;2023-02-28T15:21:44;17.90;;;7.43;;
29430;SDS011;16404;49.902;10.074;2023-02-28T15:24:37;13.90;;;7.93;;
29430;SDS011;16404;49.902;10.074;2023-02-28T15:27:27;11.90;;;7.93;;
29430;SDS011;16404;49.902;10.074;2023-02-28T15:30:19;12.93;;;7.78;;
29430;SDS011;16404;49.902;10.074;2023-02-28T15:36:05;15.10;;;8.23;;
29430;SDS011;16404;49.902;10.074;2023-02-28T15:38:54;20.95;;;8.43;;
29430;SDS011;16404;49.902;10.074;2023-02-28T15:41:40;14.02;;;8.20;;
29430;SDS011;16404;49.902;10.074;2023-02-28T15:44:28;13.55;;;7.65;;
29430;SDS011;16404;49.902;10.074;2023-02-28T15:47:23;12.57;;;7.78;;
29430;SDS011;16404;49.902;10.074;2023-02-28T15:50:10;13.98;;;8.25;;
29430;SDS011;16404;49.902;10.074;2023-02-28T15:52:58;12.98;;;7.68;;
29430;SDS011;16404;49.902;10.074;2023-02-28T15:55:51;12.45;;;7.90;;
29430;SDS011;16404;49.902;10.074;2023-02-28T15:58:39;12.02;;;7.38;;
29430;SDS011;16404;49.902;10.074;2023-02-28T16:01:27;13.00;;;7.50;;
29430;SDS011;16404;49.902;10.074;2023-02-28T16:04:17;13.93;;;7.38;;
29430;SDS011;16404;49.902;10.074;2023-02-28T16:07:04;12.35;;;7.63;;
29430;SDS011;16404;49.902;10.074;2023-02-28T16:09:50;14.50;;;9.00;;
29430;SDS011;16404;49.902;10.074;2023-02-28T16:15:24;14.73;;;7.85;;
29430;SDS011;16404;49.902;10.074;2023-02-28T16:18:12;15.93;;;9.23;;
29430;SDS011;16404;49.902;10.074;2023-02-28T16:20:57;28.67;;;16.35;;
29430;SDS011;16404;49.902;10.074;2023-02-28T16:23:42;17.15;;;9.80;;
29430;SDS011;16404;49.902;10.074;2023-02-28T16:26:26;18.02;;;9.18;;
29430;SDS011;16404;49.902;10.074;2023-02-28T16:32:06;14.80;;;8.88;;
29430;SDS011;16404;49.902;10.074;2023-02-28T16:34:50;13.52;;;8.38;;
29430;SDS011;16404;49.902;10.074;2023-02-28T16:37:35;13.02;;;7.85;;
29430;SDS011;16404;49.902;10.074;2023-02-28T16:40:22;15.38;;;8.63;;
29430;SDS011;16404;49.902;10.074;2023-02-28T16:43:18;15.80;;;9.13;;
29430;SDS011;16404;49.902;10.074;2023-02-28T16:46:09;16.65;;;10.30;;
29430;SDS011;16404;49.902;10.074;2023-02-28T16:48:56;14.23;;;9.15;;
29430;SDS011;16404;49.902;10.074;2023-02-28T16:51:40;17.85;;;9.05;;
29430;SDS011;16404;49.902;10.074;2023-02-28T16:54:25;16.95;;;10.02;;
29430;SDS011;16404;49.902;10.074;2023-02-28T17:00:01;13.65;;;8.18;;
29430;SDS011;16404;49.902;10.074;2023-02-28T17:02:47;14.73;;;7.88;;
29430;SDS011;16404;49.902;10.074;2023-02-28T17:05:33;12.25;;;7.65;;
29430;SDS011;16404;49.902;10.074;2023-02-28T17:08:22;13.10;;;7.95;;
29430;SDS011;16404;49.902;10.074;2023-02-28T17:11:07;15.30;;;7.70;;
29430;SDS011;16404;49.902;10.074;2023-02-28T17:13:52;18.77;;;8.32;;
29430;SDS011;16404;49.902;10.074;2023-02-28T17:16:40;12.90;;;8.15;;
29430;SDS011;16404;49.902;10.074;2023-02-28T17:19:25;12.95;;;7.68;;
29430;SDS011;16404;49.902;10.074;2023-02-28T17:22:09;14.38;;;8.57;;
29430;SDS011;16404;49.902;10.074;2023-02-28T17:24:54;17.40;;;8.85;;
29430;SDS011;16404;49.902;10.074;2023-02-28T17:27:43;13.85;;;8.55;;
29430;SDS011;16404;49.902;10.074;2023-02-28T17:33:12;16.35;;;8.10;;
29430;SDS011;16404;49.902;10.074;2023-02-28T17:35:57;19.38;;;9.15;;
29430;SDS011;16404;49.902;10.074;2023-02-28T17:38:41;13.80;;;7.95;;
29430;SDS011;16404;49.902;10.074;2023-02-28T17:41:26;13.60;;;8.48;;
29430;SDS011;16404;49.902;10.074;2023-02-28T17:44:11;15.40;;;8.18;;
29430;SDS011;16404;49.902;10.074;2023-02-28T17:46:55;21.27;;;9.02;;
29430;SDS011;16404;49.902;10.074;2023-02-28T17:49:40;20.92;;;10.40;;
29430;SDS011;16404;49.902;10.074;2023-02-28T17:55:09;13.40;;;8.57;;
29430;SDS011;16404;49.902;10.074;2023-02-28T17:57:54;16.27;;;10.48;;
29430;SDS011;16404;49.902;10.074;2023-02-28T18:00:39;14.93;;;9.05;;
29430;SDS011;16404;49.902;10.074;2023-02-28T18:03:24;16.17;;;9.38;;
29430;SDS011;16404;49.902;10.074;2023-02-28T18:06:13;16.92;;;9.40;;
29430;SDS011;16404;49.902;10.074;2023-02-28T18:09:04;16.77;;;10.60;;
29430;SDS011;16404;49.902;10.074;2023-02-28T18:11:50;17.65;;;11.20;;
29430;SDS011;16404;49.902;10.074;2023-02-28T18:14:35;19.80;;;10.68;;
29430;SDS011;16404;49.902;10.074;2023-02-28T18:17:20;15.85;;;9.27;;
29430;SDS011;16404;49.902;10.074;2023-02-28T18:20:04;21.10;;;11.10;;
29430;SDS011;16404;49.902;10.074;2023-02-28T18:25:33;18.15;;;9.27;;
29430;SDS011;16404;49.902;10.074;2023-02-28T18:28:18;13.48;;;8.65;;
29430;SDS011;16404;49.902;10.074;2023-02-28T18:31:06;13.88;;;9.10;;
29430;SDS011;16404;49.902;10.074;2023-02-28T18:33:52;15.20;;;8.65;;
29430;SDS011;16404;49.902;10.074;2023-02-28T18:36:36;15.20;;;8.70;;
29430;SDS011;16404;49.902;10.074;2023-02-28T18:39:21;16.45;;;8.80;;
29430;SDS011;16404;49.902;10.074;2023-02-28T18:42:05;15.48;;;8.82;;
29430;SDS011;16404;49.902;10.074;2023-02-28T18:44:50;18.35;;;8.70;;
29430;SDS011;16404;49.902;10.074;2023-02-28T18:47:35;15.77;;;8.90;;
29430;SDS011;16404;49.902;10.074;2023-02-28T18:50:19;18.55;;;10.30;;
29430;SDS011;16404;49.902;10.074;2023-02-28T18:53:04;17.42;;;10.43;;
29430;SDS011;16404;49.902;10.074;2023-02-28T18:55:48;13.32;;;8.80;;
29430;SDS011;16404;49.902;10.074;2023-02-28T18:58:33;13.45;;;8.57;;
29430;SDS011;16404;49.902;10.074;2023-02-28T19:04:12;15.43;;;8.80;;
29430;SDS011;16404;49.902;10.074;2023-02-28T19:06:57;14.73;;;8.98;;
29430;SDS011;16404;49.902;10.074;2023-02-28T19:09:42;17.27;;;9.40;;
29430;SDS011;16404;49.902;10.074;2023-02-28T19:12:27;17.60;;;9.57;;
29430;SDS011;16404;49.902;10.074;2023-02-28T19:15:12;16.38;;;9.68;;
29430;SDS011;16404;49.902;10.074;2023-02-28T19:17:56;16.90;;;10.82;;
29430;SDS011;16404;49.902;10.074;2023-02-28T19:20:41;16.15;;;9.98;;
29430;SDS011;16404;49.902;10.074;2023-02-28T19:26:15;17.58;;;10.15;;
29430;SDS011;16404;49.902;10.074;2023-02-28T19:29:03;16.25;;;9.98;;
29430;SDS011;16404;49.902;10.074;2023-02-28T19:31:48;22.92;;;13.55;;
29430;SDS011;16404;49.902;10.074;2023-02-28T19:34:33;21.58;;;12.82;;
29430;SDS011;16404;49.902;10.074;2023-02-28T19:37:18;17.45;;;11.70;;
29430;SDS011;16404;49.902;10.074;2023-02-28T19:40:02;18.73;;;10.85;;
29430;SDS011;16404;49.902;10.074;2023-02-28T19:42:47;19.95;;;11.75;;
29430;SDS011;16404;49.902;10.074;2023-02-28T19:45:33;19.80;;;11.18;;
29430;SDS011;16404;49.902;10.074;2023-02-28T19:48:19;19.30;;;11.43;;